Time;durP1;ratioP1;P1;durP2;ratioP2;P2;SDS_P1;SDS_P2;PMS_P1;PMS_P2;Temp;Humidity;BMP_temperature;BMP_pressure;BME280_temperature;BME280_humidity;BME280_pressure;Samples;Min_cycle;Max_cycle;Signal;HPM_P1;HPM_P2
2021/01/12 00:00:18;;;;;;;23.70;16.13;;;7.20;86.50;;;;;;4903581;29;20047;-84
2021/01/12 00:02:44;;;;;;;19.27;13.95;;;7.20;86.60;;;;;;4937191;29;20035;-84
2021/01/12 00:05:10;;;;;;;24.20;16.02;;;7.20;86.60;;;;;;4919720;29;20043;-84
2021/01/12 00:07:36;;;;;;;20.67;13.82;;;7.20;86.70;;;;;;4936846;29;20067;-84
2021/01/12 00:10:06;;;;;;;18.13;12.90;;;7.30;87.20;;;;;;4936955;29;20063;-84
2021/01/12 00:12:33;;;;;;;18.60;14.50;;;7.30;86.70;;;;;;4920096;29;20524;-84
2021/01/12 00:15:00;;;;;;;21.65;14.07;;;7.30;86.60;;;;;;4920605;29;20051;-84
2021/01/12 00:17:25;;;;;;;20.33;13.23;;;7.30;86.60;;;;;;4917701;29;20032;-84
2021/01/12 00:19:51;;;;;;;18.13;13.27;;;7.30;86.70;;;;;;4885160;29;20108;-84
2021/01/12 00:22:18;;;;;;;20.67;13.68;;;7.30;86.60;;;;;;4900390;29;20394;-84
2021/01/12 00:24:45;;;;;;;19.38;14.00;;;7.30;86.60;;;;;;4884903;29;20060;-84
2021/01/12 00:27:16;;;;;;;18.67;13.15;;;7.30;86.70;;;;;;4917305;29;20052;-84
2021/01/12 00:29:42;;;;;;;20.83;13.15;;;7.30;86.60;;;;;;4885155;29;20051;-84
2021/01/12 00:32:13;;;;;;;17.15;11.68;;;7.30;86.60;;;;;;4919536;29;20046;-84
2021/01/12 00:34:39;;;;;;;18.88;12.77;;;7.40;86.60;;;;;;4903612;29;20044;-84
2021/01/12 00:37:04;;;;;;;18.33;11.98;;;7.30;86.50;;;;;;4884790;29;20106;-83
2021/01/12 00:39:30;;;;;;;18.85;14.40;;;7.40;87.20;;;;;;4884506;29;20516;-84
2021/01/12 00:41:57;;;;;;;16.65;11.95;;;7.30;86.60;;;;;;4884855;29;20460;-84
2021/01/12 00:44:24;;;;;;;19.60;14.48;;;7.40;86.70;;;;;;4900013;29;20091;-84
2021/01/12 00:46:50;;;;;;;24.38;15.40;;;7.40;86.80;;;;;;4900318;29;20064;-84
2021/01/12 00:49:18;;;;;;;20.45;14.75;;;7.30;86.90;;;;;;4899814;29;20033;-84
2021/01/12 00:51:43;;;;;;;18.55;13.40;;;7.40;87.10;;;;;;4917279;29;20127;-84
2021/01/12 00:54:11;;;;;;;19.02;12.50;;;7.40;87.20;;;;;;4900382;29;20071;-86
2021/01/12 00:56:37;;;;;;;18.73;12.90;;;7.40;87.10;;;;;;4917240;29;20541;-86
2021/01/12 00:59:03;;;;;;;15.30;11.48;;;7.40;87.10;;;;;;4900483;29;20558;-86
2021/01/12 01:01:29;;;;;;;18.05;13.65;;;7.40;87.80;;;;;;4913833;29;20100;-86
2021/01/12 01:03:55;;;;;;;16.08;12.10;;;7.40;87.20;;;;;;4919400;29;20032;-86
2021/01/12 01:06:21;;;;;;;16.42;12.10;;;7.40;87.20;;;;;;4903115;29;20528;-85
2021/01/12 01:08:47;;;;;;;17.00;12.88;;;7.40;87.30;;;;;;4903533;29;20040;-84
2021/01/12 01:11:13;;;;;;;18.55;12.30;;;7.40;87.30;;;;;;4918417;29;20046;-84
2021/01/12 01:13:38;;;;;;;17.25;12.32;;;7.40;87.20;;;;;;4918609;29;20123;-83
2021/01/12 01:16:04;;;;;;;14.55;11.32;;;7.40;87.30;;;;;;4918845;29;20050;-84
2021/01/12 01:18:30;;;;;;;13.50;11.00;;;7.40;87.30;;;;;;4918455;29;20134;-83
2021/01/12 01:20:56;;;;;;;13.93;10.90;;;7.50;87.30;;;;;;4918805;29;20397;-84
2021/01/12 01:25:52;;;;;;;15.05;11.43;;;7.50;87.30;;;;;;4915564;29;20052;-87
2021/01/12 01:28:22;;;;;;;15.73;11.07;;;7.50;87.40;;;;;;4899959;29;20048;-88
2021/01/12 01:30:48;;;;;;;17.15;12.75;;;7.50;87.50;;;;;;4899999;29;20115;-87
2021/01/12 01:33:14;;;;;;;14.07;11.00;;;7.50;87.60;;;;;;4899723;29;20068;-87
2021/01/12 01:35:42;;;;;;;14.77;11.50;;;7.40;87.70;;;;;;4899844;29;20438;-87
2021/01/12 01:38:08;;;;;;;14.27;10.18;;;7.50;87.70;;;;;;4915907;29;20064;-87
2021/01/12 01:40:33;;;;;;;12.07;9.10;;;7.50;87.70;;;;;;4868755;29;20060;-87
2021/01/12 01:42:59;;;;;;;14.68;10.98;;;7.50;87.60;;;;;;4900212;29;20040;-87
2021/01/12 01:45:25;;;;;;;13.45;10.18;;;7.50;88.00;;;;;;4883820;29;20044;-86
2021/01/12 01:47:51;;;;;;;13.65;10.57;;;7.50;87.60;;;;;;4916831;29;20036;-88
2021/01/12 01:50:19;;;;;;;12.57;9.45;;;7.50;87.80;;;;;;4904437;29;20237;-87
2021/01/12 01:52:52;;;;;;;10.45;8.60;;;7.50;87.80;;;;;;4865304;29;20072;-84
2021/01/12 01:55:18;;;;;;;13.30;9.90;;;7.50;87.70;;;;;;4864330;29;20119;-84
2021/01/12 01:57:44;;;;;;;12.52;9.15;;;7.60;87.70;;;;;;4897278;29;20037;-84
2021/01/12 02:00:10;;;;;;;11.48;9.05;;;7.60;87.70;;;;;;4885060;29;20363;-84
2021/01/12 02:03:01;;;;;;;10.05;7.85;;;7.60;87.70;;;;;;4915786;29;20052;-84
2021/01/12 02:05:29;;;;;;;10.25;7.70;;;7.60;87.70;;;;;;4915636;29;20036;-84
2021/01/12 02:07:59;;;;;;;9.45;7.75;;;7.60;87.70;;;;;;4916169;29;20035;-84
2021/01/12 02:10:26;;;;;;;9.82;7.15;;;7.60;87.50;;;;;;4915466;29;20039;-85
2021/01/12 02:13:01;;;;;;;12.55;9.10;;;7.60;87.50;;;;;;4915427;29;20032;-85
2021/01/12 02:15:28;;;;;;;13.02;7.78;;;7.60;87.50;;;;;;4898448;29;20048;-85
2021/01/12 02:17:55;;;;;;;12.57;9.00;;;7.60;87.50;;;;;;4883265;29;20068;-85
2021/01/12 02:20:21;;;;;;;10.85;8.00;;;7.60;87.50;;;;;;4896901;29;20107;-84
2021/01/12 02:23:28;;;;;;;9.95;7.20;;;7.70;87.60;;;;;;4896822;29;20041;-84
2021/01/12 02:25:55;;;;;;;10.20;7.30;;;7.70;88.30;;;;;;4879589;29;20511;-84
2021/01/12 02:28:20;;;;;;;10.70;8.32;;;7.60;87.70;;;;;;4879660;29;20506;-85
2021/01/12 02:30:46;;;;;;;10.35;7.63;;;7.60;87.60;;;;;;4880070;29;20060;-85
2021/01/12 02:33:15;;;;;;;10.65;7.85;;;7.60;87.80;;;;;;4864253;29;20055;-85
2021/01/12 02:35:46;;;;;;;9.95;7.72;;;7.60;87.80;;;;;;4888457;29;20028;-85
2021/01/12 02:38:12;;;;;;;8.05;6.35;;;7.60;88.00;;;;;;4914221;29;20044;-85
2021/01/12 02:40:38;;;;;;;8.48;6.55;;;7.70;88.00;;;;;;4882293;29;20096;-85
2021/01/12 02:43:04;;;;;;;7.72;6.63;;;7.70;88.00;;;;;;4898217;29;20036;-85
2021/01/12 02:45:30;;;;;;;9.85;7.05;;;7.70;88.00;;;;;;4879131;29;20040;-85
2021/01/12 02:47:57;;;;;;;8.02;6.60;;;7.60;87.90;;;;;;4879553;29;20036;-85
2021/01/12 02:50:24;;;;;;;8.20;6.63;;;7.70;88.10;;;;;;4897859;29;20067;-85
2021/01/12 02:52:49;;;;;;;8.48;6.20;;;7.70;88.10;;;;;;4883458;29;20060;-85
2021/01/12 02:55:15;;;;;;;7.97;5.90;;;7.70;88.00;;;;;;4879576;29;20487;-85
2021/01/12 02:57:41;;;;;;;7.45;5.63;;;7.70;87.90;;;;;;4895879;29;20119;-85
2021/01/12 03:00:09;;;;;;;7.75;6.22;;;7.70;87.80;;;;;;4864469;29;20048;-85
2021/01/12 03:02:35;;;;;;;6.77;5.37;;;7.70;87.80;;;;;;4863626;29;20049;-85
2021/01/12 03:05:01;;;;;;;8.63;6.93;;;7.70;87.80;;;;;;4879473;29;20276;-85
2021/01/12 03:07:27;;;;;;;7.57;5.53;;;7.70;87.90;;;;;;4863486;29;20045;-85
2021/01/12 03:09:52;;;;;;;7.65;5.82;;;7.80;87.90;;;;;;4863967;29;20063;-85
2021/01/12 03:12:18;;;;;;;8.55;6.65;;;7.80;88.00;;;;;;4860806;29;20498;-85
2021/01/12 03:14:44;;;;;;;7.43;6.13;;;7.80;87.90;;;;;;4882102;29;20095;-85
2021/01/12 03:17:14;;;;;;;6.75;5.32;;;7.80;87.90;;;;;;4897607;29;20517;-85
2021/01/12 03:19:40;;;;;;;6.68;5.43;;;7.80;87.90;;;;;;4899069;29;20040;-85
2021/01/12 03:22:06;;;;;;;6.70;5.32;;;7.80;88.40;;;;;;4878566;29;20067;-84
2021/01/12 03:24:32;;;;;;;6.22;4.90;;;7.80;87.80;;;;;;4862600;29;20088;-85
2021/01/12 03:26:57;;;;;;;6.63;5.50;;;7.80;87.80;;;;;;4895694;29;20472;-85
2021/01/12 03:29:23;;;;;;;6.68;5.57;;;7.80;87.80;;;;;;4879082;29;20511;-85
2021/01/12 03:31:49;;;;;;;5.90;4.68;;;7.80;87.70;;;;;;4873890;29;20518;-85
2021/01/12 03:34:14;;;;;;;5.43;4.55;;;7.90;87.80;;;;;;4897470;29;20513;-85
2021/01/12 03:36:40;;;;;;;6.07;4.85;;;7.90;88.40;;;;;;4881671;29;20040;-86
2021/01/12 03:39:07;;;;;;;6.65;4.78;;;7.90;87.90;;;;;;4897745;29;20059;-86
2021/01/12 03:41:33;;;;;;;6.53;4.80;;;7.90;87.80;;;;;;4897396;29;20051;-84
2021/01/12 03:44:00;;;;;;;6.13;4.88;;;7.90;87.80;;;;;;4913236;29;20040;-84
2021/01/12 03:46:25;;;;;;;6.00;4.70;;;7.90;87.80;;;;;;4914279;29;20506;-84
2021/01/12 03:48:52;;;;;;;5.80;4.10;;;7.90;87.80;;;;;;4905827;29;20056;-84
2021/01/12 03:51:23;;;;;;;5.55;4.40;;;7.90;87.70;;;;;;4895479;29;20055;-84
2021/01/12 03:53:48;;;;;;;6.93;4.68;;;8.00;87.80;;;;;;4878225;29;20209;-84
2021/01/12 03:56:14;;;;;;;5.38;4.38;;;8.00;87.80;;;;;;4878720;29;20321;-84
2021/01/12 03:58:43;;;;;;;6.15;4.75;;;8.00;87.70;;;;;;4862902;29;20044;-84
2021/01/12 04:01:13;;;;;;;5.97;4.97;;;8.00;87.80;;;;;;4863148;29;20049;-84
2021/01/12 04:03:44;;;;;;;5.50;4.57;;;8.00;87.90;;;;;;4894866;29;20048;-84
2021/01/12 04:06:20;;;;;;;6.22;4.55;;;8.00;87.80;;;;;;4878519;29;20100;-84
2021/01/12 04:08:47;;;;;;;5.90;4.78;;;8.00;87.90;;;;;;4895068;29;20048;-84
2021/01/12 04:11:13;;;;;;;6.30;4.10;;;8.00;87.90;;;;;;4888688;29;20075;-84
2021/01/12 04:13:40;;;;;;;5.78;4.47;;;8.00;87.90;;;;;;4896754;29;20047;-84
2021/01/12 04:16:06;;;;;;;5.15;3.95;;;8.00;87.90;;;;;;4914050;29;20119;-85
2021/01/12 04:18:31;;;;;;;5.55;4.15;;;8.10;87.90;;;;;;4874057;29;20614;-85
2021/01/12 04:20:57;;;;;;;6.47;4.20;;;8.10;87.90;;;;;;4878425;29;20067;-85
2021/01/12 04:23:23;;;;;;;5.95;4.60;;;8.10;87.90;;;;;;4847536;29;20041;-85
2021/01/12 04:25:48;;;;;;;4.40;3.50;;;8.10;87.90;;;;;;4894649;29;20131;-85
2021/01/12 04:28:14;;;;;;;4.15;3.47;;;8.10;87.90;;;;;;4895236;29;20486;-84
2021/01/12 04:30:40;;;;;;;4.25;3.47;;;8.20;88.60;;;;;;4870254;29;20060;-84
2021/01/12 04:33:05;;;;;;;4.60;3.60;;;8.10;87.80;;;;;;4897210;29;20068;-85
2021/01/12 04:35:31;;;;;;;4.70;3.58;;;8.20;87.80;;;;;;4900258;29;20036;-85
2021/01/12 04:37:57;;;;;;;4.90;3.72;;;8.20;87.80;;;;;;4917376;29;20498;-85
2021/01/12 04:40:22;;;;;;;3.92;3.30;;;8.20;87.80;;;;;;4885104;29;20340;-84
2021/01/12 04:42:48;;;;;;;3.92;3.03;;;8.20;87.80;;;;;;4900152;29;20642;-85
2021/01/12 04:45:14;;;;;;;4.65;3.20;;;8.20;88.40;;;;;;4883895;29;20052;-85
2021/01/12 04:47:39;;;;;;;4.00;3.08;;;8.30;87.90;;;;;;4914932;29;20040;-85
2021/01/12 04:50:06;;;;;;;4.28;3.40;;;8.20;87.80;;;;;;4870086;29;20135;-86
2021/01/12 04:52:49;;;;;;;5.82;3.30;;;8.20;87.80;;;;;;4888925;29;20100;-85
2021/01/12 04:55:16;;;;;;;4.30;3.20;;;8.30;87.90;;;;;;4912718;29;20025;-86
2021/01/12 04:57:43;;;;;;;3.58;2.92;;;8.30;87.90;;;;;;4898057;29;20044;-85
2021/01/12 05:00:25;;;;;;;3.33;2.83;;;8.30;87.90;;;;;;4881453;29;20068;-85
2021/01/12 05:03:00;;;;;;;4.38;3.45;;;8.30;87.90;;;;;;4881171;29;20119;-85
2021/01/12 05:05:37;;;;;;;4.38;2.92;;;8.30;87.90;;;;;;4897250;29;20040;-86
2021/01/12 05:12:14;;;;;;;4.55;3.08;;;8.30;87.90;;;;;;4885857;29;20521;-87
2021/01/12 05:15:32;;;;;;;3.30;2.67;;;8.30;87.90;;;;;;4886590;29;20077;-86
2021/01/12 05:21:35;;;;;;;4.55;3.40;;;8.30;88.30;;;;;;4840597;29;20052;-86
2021/01/12 05:24:05;;;;;;;3.88;2.85;;;8.30;88.40;;;;;;4839489;29;20049;-85
2021/01/12 05:27:21;;;;;;;3.97;2.90;;;8.40;88.40;;;;;;4842218;29;20060;-90
2021/01/12 05:30:32;;;;;;;3.05;2.40;;;8.30;88.30;;;;;;4885976;29;20328;-84
2021/01/12 05:33:07;;;;;;;3.35;2.67;;;8.40;88.30;;;;;;4886949;29;20048;-86
2021/01/12 05:35:37;;;;;;;4.25;3.15;;;8.40;88.40;;;;;;4881152;29;20096;-86
2021/01/12 05:38:05;;;;;;;2.95;2.45;;;8.40;88.40;;;;;;4884752;29;20029;-85
2021/01/12 05:40:36;;;;;;;2.92;2.42;;;8.40;88.40;;;;;;4879596;29;20092;-85
2021/01/12 05:43:05;;;;;;;4.18;3.08;;;8.40;88.30;;;;;;4891249;29;20279;-85
2021/01/12 05:45:35;;;;;;;3.03;2.70;;;8.40;88.30;;;;;;4898058;29;20262;-85
2021/01/12 05:48:01;;;;;;;3.30;2.60;;;8.50;88.40;;;;;;4897792;29;20055;-85
2021/01/12 05:50:29;;;;;;;2.88;2.40;;;8.50;88.30;;;;;;4883753;29;20406;-85
2021/01/12 05:53:21;;;;;;;3.33;2.53;;;8.50;88.20;;;;;;4891408;29;20602;-85
2021/01/12 05:55:56;;;;;;;3.33;2.60;;;8.50;88.20;;;;;;4881516;29;20060;-85
2021/01/12 05:58:30;;;;;;;3.45;2.40;;;8.50;88.20;;;;;;4881367;29;20041;-85
2021/01/12 06:01:01;;;;;;;4.75;2.50;;;8.50;88.10;;;;;;4880941;29;20053;-85
2021/01/12 06:03:32;;;;;;;3.65;2.83;;;8.50;88.60;;;;;;4881202;29;20028;-85
2021/01/12 06:05:58;;;;;;;3.17;2.20;;;8.60;88.20;;;;;;4897514;29;20479;-85
2021/01/12 06:08:25;;;;;;;3.08;2.47;;;8.60;88.10;;;;;;4898130;29;20053;-86
2021/01/12 06:10:52;;;;;;;2.92;2.50;;;8.60;88.00;;;;;;4896359;29;20529;-91
2021/01/12 06:13:18;;;;;;;3.05;2.50;;;8.60;88.00;;;;;;4882022;29;20037;-87
2021/01/12 06:15:48;;;;;;;3.67;2.50;;;8.60;88.00;;;;;;4880689;29;20120;-87
2021/01/12 06:18:15;;;;;;;2.95;2.50;;;8.60;88.00;;;;;;4881571;29;20092;-87
2021/01/12 06:20:56;;;;;;;3.50;2.80;;;8.70;88.00;;;;;;4882195;29;20041;-87
2021/01/12 06:23:59;;;;;;;3.00;2.50;;;8.70;88.20;;;;;;4867434;29;20044;-86
2021/01/12 06:26:26;;;;;;;3.00;2.50;;;8.70;88.20;;;;;;4872103;29;20045;-87
2021/01/12 06:28:53;;;;;;;3.97;2.58;;;8.60;88.20;;;;;;4880570;29;20084;-87
2021/01/12 06:31:19;;;;;;;4.10;3.08;;;8.70;88.20;;;;;;4881183;29;20113;-86
2021/01/12 06:33:56;;;;;;;3.25;2.50;;;8.70;88.30;;;;;;4863610;29;20085;-87
2021/01/12 06:36:25;;;;;;;3.55;2.67;;;8.70;88.30;;;;;;4896548;29;20033;-87
2021/01/12 06:38:51;;;;;;;3.17;2.60;;;8.70;88.30;;;;;;4865147;29;20041;-87
2021/01/12 06:41:20;;;;;;;3.20;2.50;;;8.70;88.30;;;;;;4880970;29;20044;-86
2021/01/12 06:43:49;;;;;;;6.18;3.20;;;8.70;88.40;;;;;;4874354;29;20103;-86
2021/01/12 06:46:16;;;;;;;;;;;8.70;88.40;;;;;;4916597;29;20510;-86
2021/01/12 06:48:45;;;;;;;3.38;2.40;;;8.70;88.30;;;;;;4899460;29;19978;-87
2021/01/12 06:51:13;;;;;;;3.30;2.55;;;8.70;88.40;;;;;;4899111;29;20039;-86
2021/01/12 06:53:45;;;;;;;3.10;2.38;;;8.80;88.40;;;;;;4899160;29;20043;-86
2021/01/12 06:56:11;;;;;;;3.10;2.60;;;8.80;88.50;;;;;;4899228;29;20467;-86
2021/01/12 06:58:44;;;;;;;2.80;2.28;;;8.80;88.60;;;;;;4868040;29;20055;-86
2021/01/12 07:01:22;;;;;;;5.43;2.08;;;8.80;88.70;;;;;;4893516;29;20096;-86
2021/01/12 07:03:49;;;;;;;3.22;2.40;;;8.80;88.70;;;;;;4880363;29;20072;-86
2021/01/12 07:06:25;;;;;;;4.93;2.90;;;8.80;88.80;;;;;;4881360;29;20036;-86
2021/01/12 07:08:54;;;;;;;3.35;2.53;;;8.80;88.90;;;;;;4887907;29;20095;-86
2021/01/12 07:11:20;;;;;;;;;;;8.90;89.40;;;;;;4897531;29;20037;-86
2021/01/12 07:13:45;;;;;;;3.53;2.72;;;8.90;88.80;;;;;;4880156;29;19972;-86
2021/01/12 07:16:15;;;;;;;3.75;2.80;;;8.90;88.80;;;;;;4879633;29;20044;-86
2021/01/12 07:18:56;;;;;;;3.25;2.60;;;8.90;88.90;;;;;;4880055;29;20494;-86
2021/01/12 07:21:28;;;;;;;4.47;2.92;;;8.90;88.90;;;;;;4880203;29;20380;-87
2021/01/12 07:24:01;;;;;;;4.75;2.85;;;8.90;88.90;;;;;;4870887;23;20044;-88
2021/01/12 07:26:30;;;;;;;3.38;2.90;;;8.90;88.90;;;;;;4934772;29;20044;-89
2021/01/12 07:29:03;;;;;;;5.35;3.10;;;9.00;88.80;;;;;;4917711;29;20066;-89
2021/01/12 07:31:29;;;;;;;4.60;3.55;;;9.00;89.00;;;;;;4918275;29;20039;-89
2021/01/12 07:33:55;;;;;;;3.25;2.75;;;9.00;89.00;;;;;;4902313;29;20046;-88
2021/01/12 07:36:23;;;;;;;4.45;3.10;;;9.00;89.00;;;;;;4918004;29;20035;-88
2021/01/12 07:38:51;;;;;;;5.85;3.13;;;9.00;89.60;;;;;;4918189;29;20043;-89
2021/01/12 07:41:18;;;;;;;3.88;3.33;;;9.00;89.00;;;;;;4918118;29;20378;-88
2021/01/12 07:43:44;;;;;;;4.93;3.80;;;9.10;89.20;;;;;;4917269;29;20122;-89
2021/01/12 07:46:09;;;;;;;4.63;3.60;;;9.10;89.20;;;;;;4901965;29;20577;-89
2021/01/12 07:48:36;;;;;;;4.78;3.80;;;9.10;89.20;;;;;;4901812;29;20031;-87
2021/01/12 07:51:02;;;;;;;6.57;4.75;;;9.10;89.20;;;;;;4901839;29;20127;-87
2021/01/12 07:53:33;;;;;;;3.97;3.38;;;9.10;89.40;;;;;;4917867;29;20441;-87
2021/01/12 07:55:59;;;;;;;4.85;4.03;;;9.10;89.30;;;;;;4933760;29;20043;-88
2021/01/12 07:58:26;;;;;;;5.78;4.68;;;9.10;89.30;;;;;;4917771;29;20047;-88
2021/01/12 08:00:52;;;;;;;4.50;3.85;;;9.10;89.30;;;;;;4902397;29;20082;-88
2021/01/12 08:03:25;;;;;;;6.75;4.70;;;9.10;89.30;;;;;;4901844;29;20493;-88
2021/01/12 08:05:58;;;;;;;7.35;5.18;;;9.20;89.40;;;;;;4934884;29;20028;-87
2021/01/12 08:08:25;;;;;;;8.02;5.82;;;9.10;89.40;;;;;;4917481;29;20047;-87
2021/01/12 08:10:51;;;;;;;7.72;6.20;;;9.10;89.70;;;;;;4905993;29;20091;-87
2021/01/12 08:13:16;;;;;;;8.25;6.63;;;9.10;90.00;;;;;;4889461;29;20039;-87
2021/01/12 08:15:43;;;;;;;6.22;5.35;;;9.10;90.00;;;;;;4888924;29;20050;-89
2021/01/12 08:18:14;;;;;;;6.88;5.68;;;9.10;90.00;;;;;;4905143;29;20134;-88
2021/01/12 08:20:44;;;;;;;7.35;5.22;;;9.10;90.00;;;;;;4905423;29;20067;-86
2021/01/12 08:23:11;;;;;;;9.27;6.22;;;9.20;90.00;;;;;;4920816;29;20043;-87
2021/01/12 08:25:37;;;;;;;9.35;6.28;;;9.10;90.00;;;;;;4937197;29;20032;-86
2021/01/12 08:28:04;;;;;;;6.97;5.28;;;9.10;90.10;;;;;;4876076;29;20050;-86
2021/01/12 08:30:34;;;;;;;10.30;7.32;;;9.20;90.10;;;;;;4894474;29;20044;-86
2021/01/12 08:33:22;;;;;;;7.32;5.65;;;9.20;90.10;;;;;;4914972;29;20044;-86
2021/01/12 08:36:03;;;;;;;6.55;5.07;;;9.20;90.00;;;;;;4911387;29;20071;-86
2021/01/12 08:38:32;;;;;;;9.25;5.45;;;9.10;90.00;;;;;;4937896;29;20040;-86
2021/01/12 08:40:59;;;;;;;7.53;5.18;;;9.20;90.10;;;;;;4920265;29;20040;-86
2021/01/12 08:43:29;;;;;;;10.85;6.38;;;9.20;90.10;;;;;;4905174;29;20036;-86
2021/01/12 08:45:59;;;;;;;9.80;6.00;;;9.20;90.10;;;;;;4904705;29;20051;-86
2021/01/12 08:48:25;;;;;;;8.02;4.93;;;9.20;90.10;;;;;;4920258;29;20047;-86
2021/01/12 08:50:51;;;;;;;8.75;4.82;;;9.20;90.10;;;;;;4919582;29;20032;-85
2021/01/12 08:53:18;;;;;;;7.38;4.72;;;9.20;90.10;;;;;;4903687;29;20047;-86
2021/01/12 08:55:44;;;;;;;7.28;5.07;;;9.20;90.10;;;;;;4903960;29;20036;-87
2021/01/12 08:58:10;;;;;;;7.78;5.13;;;9.20;90.00;;;;;;4896010;29;20130;-86
2021/01/12 09:00:41;;;;;;;7.15;4.88;;;9.20;90.00;;;;;;4909157;29;20421;-86
2021/01/12 09:03:07;;;;;;;8.38;4.93;;;9.30;90.20;;;;;;4935294;29;20040;-87
2021/01/12 09:05:38;;;;;;;9.40;4.90;;;9.30;89.90;;;;;;4933296;29;20035;-87
2021/01/12 09:08:05;;;;;;;9.35;4.93;;;9.30;89.90;;;;;;4916630;29;20118;-86
2021/01/12 09:10:32;;;;;;;8.60;4.65;;;9.30;89.90;;;;;;4935415;29;20047;-85
2021/01/12 09:12:57;;;;;;;6.57;4.10;;;9.20;90.20;;;;;;4917824;29;20067;-86
2021/01/12 09:15:32;;;;;;;8.95;4.10;;;9.20;89.80;;;;;;4896983;29;20441;-86
2021/01/12 09:18:09;;;;;;;6.18;4.10;;;9.20;89.80;;;;;;4913744;29;20107;-87
2021/01/12 09:20:37;;;;;;;4.70;3.55;;;9.20;89.70;;;;;;4914782;29;20046;-85
2021/01/12 09:23:06;;;;;;;4.93;3.70;;;9.20;90.10;;;;;;4910798;29;20056;-85
2021/01/12 09:25:33;;;;;;;5.43;3.33;;;9.20;89.60;;;;;;4934862;29;20115;-86
2021/01/12 09:28:09;;;;;;;7.28;2.83;;;9.20;89.60;;;;;;4917893;29;20424;-87
2021/01/12 09:30:35;;;;;;;5.97;2.88;;;9.20;89.20;;;;;;4900092;29;20080;-87
2021/01/12 09:33:01;;;;;;;5.15;2.53;;;9.20;88.90;;;;;;4900385;29;20048;-86
2021/01/12 09:35:26;;;;;;;3.58;2.30;;;9.10;88.80;;;;;;4885960;29;20089;-87
2021/01/12 09:37:59;;;;;;;3.55;1.90;;;9.10;88.90;;;;;;4885359;29;20394;-91
2021/01/12 09:40:25;;;;;;;3.70;2.17;;;9.20;88.80;;;;;;4872385;29;20048;-91
2021/01/12 09:42:51;;;;;;;4.63;2.10;;;9.10;88.70;;;;;;4887481;29;20410;-89
2021/01/12 09:45:17;;;;;;;3.53;2.50;;;9.20;89.20;;;;;;4900840;29;20119;-90
2021/01/12 09:47:43;;;;;;;4.85;3.10;;;9.20;88.50;;;;;;4901012;29;20103;-89
2021/01/12 09:50:09;;;;;;;4.15;3.13;;;9.20;88.50;;;;;;4917847;29;20044;-89
2021/01/12 09:52:34;;;;;;;5.47;3.55;;;9.20;88.50;;;;;;4920521;29;20042;-91
2021/01/12 09:55:01;;;;;;;6.85;3.78;;;9.20;88.60;;;;;;4890656;29;20040;-90
2021/01/12 09:57:26;;;;;;;6.78;4.00;;;9.20;88.60;;;;;;4890333;29;20051;-91
2021/01/12 09:59:52;;;;;;;7.03;3.65;;;9.20;88.70;;;;;;4871068;29;20040;-92
2021/01/12 10:02:18;;;;;;;10.13;4.00;;;9.10;88.60;;;;;;4901463;29;20422;-89
2021/01/12 10:04:45;;;;;;;7.90;3.50;;;9.20;88.70;;;;;;4903512;29;20446;-89
2021/01/12 10:07:10;;;;;;;7.30;4.00;;;9.10;88.60;;;;;;4920365;29;20043;-90
2021/01/12 10:09:37;;;;;;;7.90;4.22;;;9.10;88.70;;;;;;4920575;29;20039;-90
2021/01/12 10:12:04;;;;;;;7.80;4.40;;;9.10;88.70;;;;;;4920498;29;20036;-89
2021/01/12 10:14:30;;;;;;;5.15;3.63;;;9.10;88.70;;;;;;4920229;29;20028;-89
2021/01/12 10:16:56;;;;;;;7.57;4.60;;;9.10;88.70;;;;;;4920583;29;20130;-83
2021/01/12 10:19:22;;;;;;;7.85;4.57;;;9.10;88.80;;;;;;4934952;29;20122;-85
2021/01/12 10:21:51;;;;;;;7.50;4.70;;;9.10;88.80;;;;;;4913329;29;20075;-84
2021/01/12 10:24:17;;;;;;;8.93;5.32;;;9.10;88.70;;;;;;4935862;29;20106;-85
2021/01/12 10:26:43;;;;;;;6.88;4.05;;;9.10;88.70;;;;;;4903748;29;20084;-85
2021/01/12 10:29:10;;;;;;;6.63;4.22;;;9.10;88.50;;;;;;4918808;29;20047;-86
2021/01/12 10:31:37;;;;;;;7.55;4.07;;;9.00;88.40;;;;;;4935263;29;20035;-90
2021/01/12 10:34:03;;;;;;;6.00;3.47;;;9.00;88.20;;;;;;4883714;29;20537;-90
2021/01/12 10:36:29;;;;;;;8.55;3.70;;;9.00;88.00;;;;;;4883710;29;20152;-89
2021/01/12 10:38:54;;;;;;;5.10;3.20;;;9.00;87.40;;;;;;4899395;29;20075;-90
2021/01/12 10:41:20;;;;;;;5.30;3.10;;;9.00;87.30;;;;;;4898847;29;20130;-88
2021/01/12 10:43:50;;;;;;;5.32;3.35;;;9.00;87.30;;;;;;4899272;29;20413;-87
2021/01/12 10:46:16;;;;;;;5.63;3.53;;;9.00;87.30;;;;;;4917314;29;20047;-87
2021/01/12 10:48:42;;;;;;;4.38;3.17;;;8.90;87.20;;;;;;4902820;29;20481;-87
2021/01/12 10:51:08;;;;;;;4.85;3.35;;;8.90;87.00;;;;;;4935350;29;20051;-87
2021/01/12 10:53:33;;;;;;;5.05;3.13;;;8.90;87.00;;;;;;4898813;29;20036;-87
2021/01/12 10:56:01;;;;;;;6.65;3.65;;;8.90;87.00;;;;;;4905797;29;20067;-87
2021/01/12 10:58:28;;;;;;;6.40;3.65;;;8.90;86.80;;;;;;4883886;29;20123;-87
2021/01/12 11:00:54;;;;;;;3.88;2.20;;;8.90;86.70;;;;;;4900473;29;20024;-87
2021/01/12 11:03:19;;;;;;;3.80;2.08;;;8.90;86.40;;;;;;4927243;29;20379;-87
2021/01/12 11:05:46;;;;;;;4.75;2.20;;;8.80;86.20;;;;;;4884645;29;20174;-87
2021/01/12 11:08:12;;;;;;;5.88;3.17;;;8.80;86.00;;;;;;4901709;29;20052;-87
2021/01/12 11:10:38;;;;;;;6.07;3.28;;;8.80;85.80;;;;;;4935686;29;20167;-87
2021/01/12 11:13:04;;;;;;;7.13;3.67;;;8.80;85.50;;;;;;4899841;29;20075;-87
2021/01/12 11:15:30;;;;;;;6.00;3.30;;;8.70;85.40;;;;;;4915086;29;20084;-87
2021/01/12 11:17:55;;;;;;;5.50;3.05;;;8.70;85.30;;;;;;4899581;29;20044;-87
2021/01/12 11:20:21;;;;;;;6.50;2.78;;;8.60;85.20;;;;;;4915978;29;20032;-87
2021/01/12 11:22:47;;;;;;;5.28;3.03;;;8.60;85.20;;;;;;4913331;29;20095;-87
2021/01/12 11:25:13;;;;;;;6.15;3.13;;;8.60;85.20;;;;;;4901959;29;20143;-87
2021/01/12 11:27:39;;;;;;;4.90;2.67;;;8.60;85.20;;;;;;4914798;29;20047;-89
2021/01/12 11:30:07;;;;;;;4.82;2.72;;;8.60;85.20;;;;;;4898134;29;20039;-86
2021/01/12 11:32:33;;;;;;;5.15;2.42;;;8.60;85.10;;;;;;4932555;29;20040;-87
2021/01/12 11:35:00;;;;;;;5.22;2.67;;;8.50;85.10;;;;;;4916510;29;20050;-86
2021/01/12 11:37:29;;;;;;;6.32;2.90;;;8.60;85.20;;;;;;4915890;29;20123;-87
2021/01/12 11:39:57;;;;;;;7.57;3.85;;;8.60;85.20;;;;;;4899133;29;20502;-85
2021/01/12 11:42:23;;;;;;;7.45;4.13;;;8.60;85.00;;;;;;4912930;29;20039;-85
2021/01/12 11:44:49;;;;;;;6.75;3.72;;;8.60;85.00;;;;;;4917837;29;20511;-85
2021/01/12 11:47:15;;;;;;;7.20;3.53;;;8.50;85.00;;;;;;4918483;29;20051;-85
2021/01/12 11:49:40;;;;;;;7.00;3.10;;;8.50;85.00;;;;;;4918231;29;20067;-85
2021/01/12 11:52:08;;;;;;;4.93;3.00;;;8.50;85.00;;;;;;4918890;29;20078;-85
2021/01/12 11:54:34;;;;;;;5.57;2.90;;;8.50;85.00;;;;;;4935365;29;20044;-85
2021/01/12 11:57:00;;;;;;;4.10;2.20;;;8.50;84.80;;;;;;4918556;29;20094;-85
2021/01/12 11:59:27;;;;;;;5.00;2.38;;;8.50;84.80;;;;;;4902555;29;20449;-85
2021/01/12 12:01:56;;;;;;;5.85;2.35;;;8.50;85.20;;;;;;4902830;29;20040;-85
2021/01/12 12:04:24;;;;;;;3.15;2.20;;;8.50;84.30;;;;;;4935329;29;20036;-85
2021/01/12 12:06:58;;;;;;;3.05;1.80;;;8.50;84.20;;;;;;4918815;29;20040;-85
2021/01/12 12:09:25;;;;;;;5.03;1.77;;;8.50;84.20;;;;;;4934970;29;20031;-85
2021/01/12 12:11:50;;;;;;;5.25;1.80;;;8.40;83.90;;;;;;4902433;29;20083;-85
2021/01/12 12:14:17;;;;;;;3.42;1.80;;;8.40;83.70;;;;;;4918376;29;20040;-85
2021/01/12 12:16:45;;;;;;;5.50;2.00;;;8.40;83.70;;;;;;4918120;29;20477;-85
2021/01/12 12:19:12;;;;;;;6.30;2.08;;;8.40;83.70;;;;;;4934702;29;20099;-86
2021/01/12 12:21:47;;;;;;;4.68;1.90;;;8.30;83.50;;;;;;4901961;29;20139;-85
2021/01/12 12:24:17;;;;;;;4.35;1.85;;;8.30;83.70;;;;;;4935597;29;20044;-85
2021/01/12 12:26:44;;;;;;;4.13;1.48;;;8.30;83.40;;;;;;4917657;29;20054;-85
2021/01/12 12:29:09;;;;;;;3.22;1.35;;;8.30;83.60;;;;;;4917778;29;20446;-87
2021/01/12 12:31:35;;;;;;;4.40;1.55;;;8.30;83.60;;;;;;4895344;29;20048;-85
2021/01/12 12:34:04;;;;;;;7.70;2.67;;;8.30;83.10;;;;;;4914643;29;20508;-86
2021/01/12 12:36:30;;;;;;;2.65;1.30;;;8.20;82.60;;;;;;4897942;29;20067;-85
2021/01/12 12:38:56;;;;;;;3.03;1.48;;;8.20;83.20;;;;;;4897728;29;20044;-85
2021/01/12 12:41:22;;;;;;;3.65;1.23;;;8.10;82.60;;;;;;4917213;29;20402;-86
2021/01/12 12:43:48;;;;;;;3.60;1.73;;;8.10;82.80;;;;;;4918513;29;20036;-86
2021/01/12 12:46:16;;;;;;;5.35;2.47;;;8.00;82.90;;;;;;4918917;29;20499;-86
2021/01/12 12:48:43;;;;;;;3.72;1.77;;;8.10;83.00;;;;;;4918854;29;20033;-86
2021/01/12 12:51:10;;;;;;;2.92;1.40;;;8.10;83.10;;;;;;4903371;29;20044;-86
2021/01/12 12:53:38;;;;;;;3.58;1.95;;;8.10;83.20;;;;;;4918051;29;20035;-86
2021/01/12 12:56:09;;;;;;;5.20;2.17;;;8.00;83.00;;;;;;4904314;29;20047;-86
2021/01/12 12:58:35;;;;;;;4.63;1.58;;;8.00;83.00;;;;;;4920071;29;20031;-86
2021/01/12 13:01:00;;;;;;;4.10;1.50;;;8.00;82.90;;;;;;4904485;29;20039;-87
2021/01/12 13:03:26;;;;;;;6.78;1.83;;;8.00;83.00;;;;;;4919571;29;20036;-87
2021/01/12 13:05:52;;;;;;;5.13;1.60;;;8.00;83.00;;;;;;4888836;29;20130;-86
2021/01/12 13:08:18;;;;;;;4.00;2.15;;;8.00;83.00;;;;;;4920229;29;20493;-87
2021/01/12 13:10:44;;;;;;;5.32;1.85;;;8.00;82.90;;;;;;4904378;29;20035;-87